createdAt,value
2023-10-13T00:00:43.448Z,16.12
2023-10-13T00:03:19.231Z,16.11
2023-10-13T00:05:46.074Z,16.11
2023-10-13T00:08:13.691Z,16.11
2023-10-13T00:10:40.434Z,16.12
2023-10-13T00:13:20.537Z,16.11
2023-10-13T00:16:00.646Z,16.11
2023-10-13T00:18:44.154Z,16.10
2023-10-13T00:21:14.877Z,16.09
2023-10-13T00:23:55.060Z,16.08
2023-10-13T00:26:29.161Z,16.08
2023-10-13T00:29:22.845Z,16.08
2023-10-13T00:31:50.205Z,16.07
2023-10-13T00:34:21.116Z,16.07
2023-10-13T00:37:11.151Z,16.05
2023-10-13T00:39:41.927Z,16.07
2023-10-13T00:42:09.683Z,16.10
2023-10-13T00:44:43.158Z,16.10
2023-10-13T00:47:11.455Z,16.11
2023-10-13T00:49:41.421Z,16.13
2023-10-13T00:52:11.443Z,16.14
2023-10-13T00:54:39.285Z,16.14
2023-10-13T00:57:13.683Z,16.16
2023-10-13T00:59:43.237Z,16.16
2023-10-13T01:02:28.793Z,16.14
2023-10-13T01:04:55.878Z,16.16
2023-10-13T01:07:24.501Z,16.15
2023-10-13T01:09:51.244Z,16.17
2023-10-13T01:12:17.976Z,16.16
2023-10-13T01:14:45.563Z,16.16
2023-10-13T01:17:12.661Z,16.15
2023-10-13T01:19:43.938Z,16.17
2023-10-13T01:22:11.174Z,16.18
2023-10-13T01:24:38.543Z,16.18
2023-10-13T01:27:19.647Z,16.18
2023-10-13T01:29:52.155Z,16.18
2023-10-13T01:32:21.134Z,16.17
2023-10-13T01:34:49.984Z,16.17
2023-10-13T01:37:17.895Z,16.18
2023-10-13T01:39:48.589Z,16.19
2023-10-13T01:42:23.720Z,16.20
2023-10-13T01:44:50.568Z,16.21
2023-10-13T01:47:18.259Z,16.22
2023-10-13T01:49:52.053Z,16.23
2023-10-13T01:52:19.641Z,16.25
2023-10-13T01:54:50.757Z,16.28
2023-10-13T01:57:25.567Z,16.29
2023-10-13T01:59:52.435Z,16.27
2023-10-13T02:02:42.347Z,16.29
2023-10-13T02:05:09.353Z,16.31
2023-10-13T02:07:36.495Z,16.32
2023-10-13T02:10:07.243Z,16.30
2023-10-13T02:12:46.157Z,16.31
2023-10-13T02:15:22.747Z,16.35
2023-10-13T02:17:56.892Z,16.33
2023-10-13T02:20:31.965Z,16.32
2023-10-13T02:23:00.017Z,16.32
2023-10-13T02:25:47.249Z,16.30
2023-10-13T02:28:15.468Z,16.32
2023-10-13T02:30:46.654Z,16.33
2023-10-13T02:33:14.788Z,16.35
2023-10-13T02:35:52.061Z,16.35
2023-10-13T02:38:28.138Z,16.33
2023-10-13T02:40:56.313Z,16.33
2023-10-13T02:43:24.181Z,16.34
2023-10-13T02:46:01.169Z,16.34
2023-10-13T02:48:31.961Z,16.31
2023-10-13T02:51:03.425Z,16.32
2023-10-13T02:53:30.904Z,16.32
2023-10-13T02:56:06.254Z,16.32
2023-10-13T02:58:39.637Z,16.33
2023-10-13T03:01:18.753Z,16.32
2023-10-13T03:03:56.973Z,16.37
2023-10-13T03:06:33.989Z,16.38
2023-10-13T03:09:20.884Z,16.39
2023-10-13T03:11:51.040Z,16.41
2023-10-13T03:14:35.352Z,16.42
2023-10-13T03:17:10.616Z,16.45
2023-10-13T03:19:40.837Z,16.49
2023-10-13T03:22:13.050Z,16.51
2023-10-13T03:24:47.262Z,16.53
2023-10-13T03:27:19.281Z,16.55
2023-10-13T03:29:49.433Z,16.56
2023-10-13T03:32:17.237Z,16.59
2023-10-13T03:35:06.682Z,16.62
2023-10-13T03:37:39.832Z,16.67
2023-10-13T03:40:23.775Z,16.69
2023-10-13T03:43:06.836Z,16.70
2023-10-13T03:45:41.266Z,16.72
2023-10-13T03:48:28.305Z,16.75
2023-10-13T03:51:12.114Z,16.76
2023-10-13T03:53:55.657Z,16.77
2023-10-13T03:56:31.966Z,16.77
2023-10-13T03:59:27.222Z,16.79
2023-10-13T04:02:00.646Z,16.80
2023-10-13T04:04:45.221Z,16.81
2023-10-13T04:07:12.076Z,16.81
2023-10-13T04:09:58.919Z,16.85
2023-10-13T04:12:51.736Z,16.86
2023-10-13T04:15:24.294Z,16.87
2023-10-13T04:18:04.752Z,16.86
2023-10-13T04:20:39.749Z,16.89
2023-10-13T04:23:21.656Z,16.88
2023-10-13T04:25:48.702Z,16.90
2023-10-13T04:28:18.011Z,16.89
2023-10-13T04:30:49.561Z,16.90
2023-10-13T04:33:37.258Z,16.91
2023-10-13T04:36:15.828Z,16.93
2023-10-13T04:38:54.095Z,16.94
2023-10-13T04:41:24.296Z,16.95
2023-10-13T04:43:58.118Z,16.97
2023-10-13T04:46:41.685Z,16.99
2023-10-13T04:49:27.316Z,16.98
2023-10-13T04:52:18.150Z,17.01
2023-10-13T04:57:48.865Z,17.03
2023-10-13T05:00:19.104Z,17.04
2023-10-13T05:03:03.073Z,17.05
2023-10-13T05:05:48.259Z,17.06
2023-10-13T05:08:33.487Z,17.06
2023-10-13T05:11:23.967Z,17.05
2023-10-13T05:14:09.117Z,17.05
2023-10-13T05:16:54.206Z,17.04
2023-10-13T05:19:39.545Z,17.05
2023-10-13T05:22:24.759Z,17.04
2023-10-13T05:25:10.039Z,17.04
2023-10-13T05:27:55.473Z,17.04
2023-10-13T05:30:40.864Z,17.04
2023-10-13T05:33:26.507Z,17.01
2023-10-13T05:36:11.592Z,17.03
2023-10-13T05:39:08.384Z,17.04
2023-10-13T05:41:53.528Z,17.06
2023-10-13T05:44:38.736Z,17.07
2023-10-13T05:47:24.588Z,17.04
2023-10-13T05:49:53.968Z,17.07
2023-10-13T05:52:20.767Z,17.04
2023-10-13T05:55:07.191Z,17.02
2023-10-13T05:57:52.371Z,17.03
2023-10-13T06:00:38.775Z,17.05
2023-10-13T06:03:24.465Z,17.03
2023-10-13T06:06:15.177Z,17.01
2023-10-13T06:09:00.661Z,17.03
2023-10-13T06:11:46.132Z,17.05
2023-10-13T06:14:31.615Z,17.06
2023-10-13T06:17:16.860Z,17.07
2023-10-13T06:20:01.959Z,17.08
2023-10-13T06:22:47.516Z,17.09
2023-10-13T06:25:32.606Z,17.10
2023-10-13T06:28:17.787Z,17.10
2023-10-13T06:30:54.341Z,17.13
2023-10-13T06:33:23.540Z,17.13
2023-10-13T06:35:58.113Z,17.17
2023-10-13T06:38:25.633Z,17.17
2023-10-13T06:40:53.910Z,17.18
2023-10-13T06:43:26.147Z,17.23
2023-10-13T06:46:17.966Z,17.24
2023-10-13T06:48:45.160Z,17.28
2023-10-13T06:51:28.068Z,17.27
2023-10-13T06:53:58.066Z,17.36
2023-10-13T06:56:31.293Z,17.36
2023-10-13T06:59:01.185Z,17.43
2023-10-13T07:01:28.768Z,17.49
2023-10-13T07:03:58.004Z,17.56
2023-10-13T07:06:26.852Z,17.57
2023-10-13T07:08:53.610Z,17.60
2023-10-13T07:11:34.514Z,17.63
2023-10-13T07:14:11.856Z,17.69
2023-10-13T07:17:01.125Z,17.71
2023-10-13T07:19:31.441Z,17.74
2023-10-13T07:22:18.230Z,17.79
2023-10-13T07:24:44.997Z,17.82
2023-10-13T07:27:12.616Z,17.87
2023-10-13T07:29:41.494Z,17.92
2023-10-13T07:32:14.314Z,18.00
2023-10-13T07:34:41.116Z,18.03
2023-10-13T07:37:17.519Z,18.08
2023-10-13T07:39:44.277Z,18.12
2023-10-13T07:42:21.024Z,18.16
2023-10-13T07:44:48.173Z,18.22
2023-10-13T07:47:15.816Z,18.28
2023-10-13T07:49:42.965Z,18.29
2023-10-13T07:52:25.487Z,18.31
2023-10-13T07:55:15.736Z,18.30
2023-10-13T07:57:55.252Z,18.37
2023-10-13T08:00:39.217Z,18.43
2023-10-13T08:03:18.406Z,18.46
2023-10-13T08:06:05.132Z,18.52
2023-10-13T08:08:42.326Z,18.59
2023-10-13T08:11:31.258Z,18.61
2023-10-13T08:14:10.016Z,18.64
2023-10-13T08:16:55.244Z,18.65
2023-10-13T08:19:33.698Z,18.68
2023-10-13T08:22:01.410Z,18.68
2023-10-13T08:24:40.839Z,18.64
2023-10-13T08:27:17.436Z,18.59
2023-10-13T08:29:55.353Z,18.60
2023-10-13T08:32:48.633Z,18.56
2023-10-13T08:35:25.809Z,18.52
2023-10-13T08:37:52.587Z,18.54
2023-10-13T08:40:42.028Z,18.55
2023-10-13T08:43:12.912Z,18.55
2023-10-13T08:45:41.781Z,18.55
2023-10-13T08:48:13.448Z,18.55
2023-10-13T08:50:52.412Z,18.50
2023-10-13T08:53:28.661Z,18.56
2023-10-13T08:56:04.822Z,18.58
2023-10-13T08:58:50.948Z,18.62
2023-10-13T09:01:37.026Z,18.66
2023-10-13T09:04:23.059Z,18.73
2023-10-13T09:07:02.238Z,18.83
2023-10-13T09:09:37.338Z,18.91
2023-10-13T09:12:12.442Z,18.95
2023-10-13T09:14:46.234Z,19.03
2023-10-13T09:17:17.910Z,19.08
2023-10-13T09:19:57.340Z,19.14
2023-10-13T09:22:44.212Z,19.20
2023-10-13T09:25:16.200Z,19.28
2023-10-13T09:27:43.157Z,19.32
2023-10-13T09:30:22.545Z,19.36
2023-10-13T09:33:02.990Z,19.41
2023-10-13T09:35:35.150Z,19.42
2023-10-13T09:38:03.779Z,19.49
2023-10-13T09:40:35.073Z,19.58
2023-10-13T09:43:09.197Z,19.62
2023-10-13T09:45:58.330Z,19.67
2023-10-13T09:48:33.248Z,19.75
2023-10-13T09:51:08.363Z,19.84
2023-10-13T09:53:36.176Z,19.84
2023-10-13T09:56:28.453Z,19.96
2023-10-13T09:59:02.164Z,19.99
2023-10-13T10:01:33.407Z,20.04
2023-10-13T10:04:14.758Z,20.12
2023-10-13T10:06:45.824Z,20.20
2023-10-13T10:09:16.916Z,20.27
2023-10-13T10:12:05.631Z,20.32
2023-10-13T10:14:47.469Z,20.43
2023-10-13T10:17:15.458Z,20.50
2023-10-13T10:19:49.189Z,20.50
2023-10-13T10:22:35.167Z,20.52
2023-10-13T10:25:08.119Z,20.53
2023-10-13T10:27:35.639Z,20.51
2023-10-13T10:30:05.438Z,20.54
2023-10-13T10:32:41.786Z,20.53
2023-10-13T10:35:15.606Z,20.53
2023-10-13T10:37:49.681Z,20.51
2023-10-13T10:40:48.327Z,20.51
2023-10-13T10:43:32.525Z,20.53
2023-10-13T10:46:03.579Z,20.59
2023-10-13T10:48:35.515Z,20.61
2023-10-13T10:51:08.459Z,20.69
2023-10-13T10:53:41.604Z,20.76
2023-10-13T10:56:27.338Z,20.84
2023-10-13T10:58:58.864Z,20.91
2023-10-13T11:01:35.919Z,20.99
2023-10-13T11:04:09.983Z,21.07
2023-10-13T11:06:44.080Z,21.16
2023-10-13T11:09:20.089Z,21.29
2023-10-13T11:11:47.987Z,21.38
2023-10-13T11:14:26.211Z,21.54
2023-10-13T11:16:55.814Z,21.59
2023-10-13T11:19:36.450Z,21.64
2023-10-13T11:22:37.802Z,21.72
2023-10-13T11:25:12.678Z,21.75
2023-10-13T11:27:52.177Z,21.78
2023-10-13T11:30:26.740Z,21.82
2023-10-13T11:33:07.684Z,21.81
2023-10-13T11:35:54.920Z,21.82
2023-10-13T11:38:50.474Z,21.81
2023-10-13T11:41:20.203Z,21.81
2023-10-13T11:43:54.733Z,21.83
2023-10-13T11:46:39.100Z,21.81
2023-10-13T11:49:16.661Z,21.80
2023-10-13T11:54:19.712Z,21.78
2023-10-13T11:59:28.500Z,21.83
2023-10-13T12:02:13.934Z,21.85
2023-10-13T12:04:53.718Z,21.88
2023-10-13T12:07:39.677Z,21.95
2023-10-13T12:10:08.044Z,21.96
2023-10-13T12:12:41.999Z,21.97
2023-10-13T12:15:16.025Z,21.97
2023-10-13T12:17:46.534Z,21.97
2023-10-13T12:20:20.084Z,21.93
2023-10-13T12:22:56.661Z,21.91
2023-10-13T12:25:27.225Z,21.90
2023-10-13T12:27:59.165Z,21.91
2023-10-13T12:30:50.441Z,21.90
2023-10-13T12:33:25.182Z,21.88
2023-10-13T12:36:11.279Z,21.90
2023-10-13T12:38:52.524Z,21.88
2023-10-13T12:41:39.405Z,21.84
2023-10-13T12:44:25.958Z,21.88
2023-10-13T12:47:13.324Z,21.93
2023-10-13T12:49:50.891Z,22.02
2023-10-13T12:52:17.922Z,22.06
2023-10-13T12:55:10.924Z,22.12
2023-10-13T12:57:44.678Z,22.18
2023-10-13T13:00:24.182Z,22.18
2023-10-13T13:02:53.981Z,22.18
2023-10-13T13:05:24.215Z,22.18
2023-10-13T13:07:54.029Z,22.14
2023-10-13T13:10:22.584Z,22.17
2023-10-13T13:12:49.235Z,22.19
2023-10-13T13:15:16.243Z,22.21
2023-10-13T13:17:43.099Z,22.23
2023-10-13T13:20:27.001Z,22.26
2023-10-13T13:22:55.593Z,22.30
2023-10-13T13:25:31.874Z,22.33
2023-10-13T13:27:59.544Z,22.39
2023-10-13T13:30:33.156Z,22.47
2023-10-13T13:33:05.231Z,22.49
2023-10-13T13:35:36.184Z,22.51
2023-10-13T13:38:23.784Z,22.52
2023-10-13T13:40:50.906Z,22.54
2023-10-13T13:43:33.084Z,22.61
2023-10-13T13:46:04.689Z,22.64
2023-10-13T13:48:32.401Z,22.61
2023-10-13T13:51:06.089Z,22.59
2023-10-13T13:53:39.369Z,22.54
2023-10-13T13:56:06.090Z,22.48
2023-10-13T13:58:32.892Z,22.42
2023-10-13T14:01:20.115Z,22.35
2023-10-13T14:03:48.311Z,22.29
2023-10-13T14:06:22.486Z,22.25
2023-10-13T14:08:58.480Z,22.18
2023-10-13T14:11:42.087Z,22.14
2023-10-13T14:14:26.707Z,22.07
2023-10-13T14:16:54.872Z,22.06
2023-10-13T14:19:30.670Z,22.06
2023-10-13T14:21:58.657Z,22.02
2023-10-13T14:24:29.501Z,22.00
2023-10-13T14:26:57.042Z,21.96
2023-10-13T14:29:28.180Z,21.95
2023-10-13T14:31:55.208Z,21.91
2023-10-13T14:34:24.826Z,21.89
2023-10-13T14:36:51.504Z,21.87
2023-10-13T14:39:18.217Z,21.84
2023-10-13T14:41:45.495Z,21.82
2023-10-13T14:44:14.164Z,21.80
2023-10-13T14:46:42.304Z,21.80
2023-10-13T14:49:09.177Z,21.79
2023-10-13T14:51:41.308Z,21.75
2023-10-13T14:54:08.575Z,21.71
2023-10-13T14:56:35.274Z,21.67
2023-10-13T14:59:02.053Z,21.63
2023-10-13T15:01:28.832Z,21.62
2023-10-13T15:03:59.343Z,21.60
2023-10-13T15:06:30.429Z,21.60
2023-10-13T15:09:01.500Z,21.59
2023-10-13T15:11:44.065Z,21.57
2023-10-13T15:14:15.850Z,21.54
2023-10-13T15:16:49.661Z,21.50
2023-10-13T15:19:19.667Z,21.49
2023-10-13T15:21:52.019Z,21.46
2023-10-13T15:24:25.665Z,21.42
2023-10-13T15:26:58.454Z,21.39
2023-10-13T15:29:31.546Z,21.36
2023-10-13T15:32:01.225Z,21.34
2023-10-13T15:34:31.457Z,21.31
2023-10-13T15:36:59.912Z,21.29
2023-10-13T15:39:30.442Z,21.25
2023-10-13T15:42:00.218Z,21.20
2023-10-13T15:44:30.793Z,21.17
2023-10-13T15:49:31.223Z,21.09
2023-10-13T15:51:59.328Z,21.08
2023-10-13T15:54:26.439Z,21.05
2023-10-13T15:56:53.318Z,21.04
2023-10-13T15:59:20.028Z,21.00
2023-10-13T16:01:48.388Z,20.97
2023-10-13T16:04:16.552Z,20.95
2023-10-13T16:06:48.765Z,20.91
2023-10-13T16:09:16.015Z,20.88
2023-10-13T16:11:47.066Z,20.86
2023-10-13T16:14:18.817Z,20.79
2023-10-13T16:16:48.143Z,20.77
2023-10-13T16:19:18.921Z,20.74
2023-10-13T16:21:47.204Z,20.72
2023-10-13T16:24:18.779Z,20.70
2023-10-13T16:26:57.466Z,20.67
2023-10-13T16:29:24.463Z,20.64
2023-10-13T16:31:51.176Z,20.62
2023-10-13T16:34:19.702Z,20.59
2023-10-13T16:36:55.884Z,20.58
2023-10-13T16:39:24.438Z,20.55
2023-10-13T16:41:53.484Z,20.53
2023-10-13T16:44:23.809Z,20.46
2023-10-13T16:46:50.559Z,20.50
2023-10-13T16:49:17.261Z,20.46
2023-10-13T16:51:43.927Z,20.43
2023-10-13T16:54:11.445Z,20.41
2023-10-13T16:56:39.889Z,20.39
2023-10-13T16:59:08.631Z,20.38
2023-10-13T17:01:35.513Z,20.35
2023-10-13T17:04:02.353Z,20.33
2023-10-13T17:06:29.550Z,20.31
2023-10-13T17:08:57.221Z,20.30
2023-10-13T17:11:25.761Z,20.28
2023-10-13T17:13:52.532Z,20.28
2023-10-13T17:16:21.424Z,20.28
2023-10-13T17:18:49.897Z,20.26
2023-10-13T17:21:32.633Z,20.25
2023-10-13T17:24:02.773Z,20.23
2023-10-13T17:26:29.941Z,20.21
2023-10-13T17:29:00.104Z,20.19
2023-10-13T17:31:33.769Z,20.16
2023-10-13T17:34:01.313Z,20.13
2023-10-13T17:36:30.057Z,20.11
2023-10-13T17:38:57.414Z,20.08
2023-10-13T17:41:29.236Z,20.06
2023-10-13T17:43:57.326Z,20.02
2023-10-13T17:46:25.889Z,20.01
2023-10-13T17:48:57.281Z,19.99
2023-10-13T17:51:24.876Z,19.99
2023-10-13T17:53:54.171Z,19.97
2023-10-13T17:56:20.983Z,19.96
2023-10-13T17:58:47.756Z,19.95
2023-10-13T18:01:19.640Z,19.94
2023-10-13T18:03:53.828Z,19.93
2023-10-13T18:06:27.044Z,19.90
2023-10-13T18:08:57.663Z,19.89
2023-10-13T18:11:25.723Z,19.84
2023-10-13T18:13:53.490Z,19.83
2023-10-13T18:16:22.364Z,19.84
2023-10-13T18:18:59.418Z,19.81
2023-10-13T18:21:28.714Z,19.78
2023-10-13T18:27:09.923Z,19.68
2023-10-13T18:29:38.550Z,19.69
2023-10-13T18:32:05.826Z,19.66
2023-10-13T18:34:33.178Z,19.64
2023-10-13T18:37:01.083Z,19.63
2023-10-13T18:39:35.298Z,19.62
2023-10-13T18:42:04.665Z,19.62
2023-10-13T18:44:35.843Z,19.60
2023-10-13T18:47:02.892Z,19.60
2023-10-13T18:49:29.692Z,19.60
2023-10-13T18:51:57.012Z,19.57
2023-10-13T18:54:24.247Z,19.56
2023-10-13T18:56:55.607Z,19.55
2023-10-13T18:59:23.535Z,19.55
2023-10-13T19:01:50.603Z,19.55
2023-10-13T19:04:17.343Z,19.54
2023-10-13T19:06:44.272Z,19.54
2023-10-13T19:09:11.528Z,19.50
2023-10-13T19:11:41.356Z,19.50
2023-10-13T19:14:11.891Z,19.50
2023-10-13T19:16:42.260Z,19.51
2023-10-13T19:19:09.218Z,19.50
2023-10-13T19:21:37.870Z,19.50
2023-10-13T19:24:07.475Z,19.49
2023-10-13T19:26:36.925Z,19.51
2023-10-13T19:29:07.210Z,19.54
2023-10-13T19:31:42.668Z,19.56
2023-10-13T19:34:11.757Z,19.56
2023-10-13T19:36:39.042Z,19.59
2023-10-13T19:39:09.464Z,19.62
2023-10-13T19:41:37.782Z,19.63
2023-10-13T19:44:05.513Z,19.67
2023-10-13T19:46:39.674Z,19.70
2023-10-13T19:49:06.821Z,19.73
2023-10-13T19:51:34.310Z,19.75
2023-10-13T19:54:03.703Z,19.75
2023-10-13T19:56:33.515Z,19.75
2023-10-13T19:59:02.939Z,19.77
2023-10-13T20:01:35.464Z,19.82
2023-10-13T20:04:13.009Z,19.86
2023-10-13T20:06:42.430Z,19.92
2023-10-13T20:09:27.464Z,19.98
2023-10-13T20:11:54.838Z,20.04
2023-10-13T20:14:22.511Z,20.10
2023-10-13T20:17:12.700Z,20.11
2023-10-13T20:19:39.432Z,20.12
2023-10-13T20:22:11.547Z,20.19
2023-10-13T20:24:38.383Z,20.22
2023-10-13T20:27:05.168Z,20.23
2023-10-13T20:29:31.906Z,20.24
2023-10-13T20:32:00.997Z,20.29
2023-10-13T20:34:31.541Z,20.31
2023-10-13T20:37:01.846Z,20.35
2023-10-13T20:39:38.206Z,20.37
2023-10-13T20:42:09.084Z,20.35
2023-10-13T20:44:39.296Z,20.32
2023-10-13T20:47:08.282Z,20.25
2023-10-13T20:49:35.127Z,20.28
2023-10-13T20:52:06.693Z,20.27
2023-10-13T20:54:34.079Z,20.27
2023-10-13T20:57:01.248Z,20.26
2023-10-13T20:59:28.678Z,20.26
2023-10-13T21:01:56.499Z,20.19
2023-10-13T21:04:25.255Z,20.17
2023-10-13T21:06:52.427Z,20.15
2023-10-13T21:09:22.702Z,20.19
2023-10-13T21:11:49.896Z,20.17
2023-10-13T21:14:17.029Z,20.17
2023-10-13T21:16:43.883Z,20.17
2023-10-13T21:19:11.298Z,20.14
2023-10-13T21:21:39.069Z,20.05
2023-10-13T21:24:11.425Z,20.10
2023-10-13T21:26:40.480Z,20.10
2023-10-13T21:29:10.383Z,20.07
2023-10-13T21:31:37.834Z,20.09
2023-10-13T21:34:07.634Z,20.07
2023-10-13T21:36:38.025Z,20.06
2023-10-13T21:39:05.772Z,20.00
2023-10-13T21:41:38.883Z,19.98
2023-10-13T21:44:07.674Z,19.83
2023-10-13T21:46:36.548Z,19.82
2023-10-13T21:49:07.340Z,19.80
2023-10-13T21:51:37.081Z,19.73
2023-10-13T21:54:04.421Z,19.65
2023-10-13T21:56:32.646Z,19.60
2023-10-13T21:58:59.431Z,19.54
2023-10-13T22:01:30.619Z,19.43
2023-10-13T22:04:00.887Z,19.35
2023-10-13T22:06:27.724Z,19.26
2023-10-13T22:08:54.537Z,19.20
2023-10-13T22:11:24.203Z,19.11
2023-10-13T22:13:51.038Z,19.04
2023-10-13T22:16:19.265Z,18.98
2023-10-13T22:18:49.978Z,18.87
2023-10-13T22:21:20.718Z,18.86
2023-10-13T22:23:47.955Z,18.83
2023-10-13T22:26:16.797Z,18.81
2023-10-13T22:28:46.487Z,18.76
2023-10-13T22:31:23.928Z,18.73
2023-10-13T22:33:53.773Z,18.71
2023-10-13T22:36:24.212Z,18.67
2023-10-13T22:39:00.272Z,18.65
2023-10-13T22:41:30.815Z,18.62
2023-10-13T22:44:00.424Z,18.59
2023-10-13T22:46:29.961Z,18.50
2023-10-13T22:48:59.377Z,18.47
2023-10-13T22:51:27.198Z,18.46
2023-10-13T22:53:54.032Z,18.45
2023-10-13T22:56:22.190Z,18.47
2023-10-13T22:58:49.588Z,18.46
2023-10-13T23:01:19.366Z,18.45
2023-10-13T23:03:59.715Z,18.43
2023-10-13T23:06:41.193Z,18.45
2023-10-13T23:09:17.524Z,18.38
2023-10-13T23:11:50.950Z,18.37
2023-10-13T23:14:19.959Z,18.37
2023-10-13T23:16:47.758Z,18.38
2023-10-13T23:19:14.839Z,18.36
2023-10-13T23:21:41.905Z,18.35
2023-10-13T23:24:11.236Z,18.29
2023-10-13T23:26:38.206Z,18.35
2023-10-13T23:29:06.418Z,18.34
2023-10-13T23:31:33.665Z,18.34
2023-10-13T23:34:02.328Z,18.35
2023-10-13T23:36:31.917Z,18.35
2023-10-13T23:39:01.309Z,18.35
2023-10-13T23:41:32.483Z,18.35
2023-10-13T23:44:00.232Z,18.32
2023-10-13T23:46:28.563Z,18.37
2023-10-13T23:48:55.533Z,18.37
2023-10-13T23:51:28.645Z,18.39
2023-10-13T23:54:02.128Z,18.39
2023-10-13T23:56:28.917Z,18.40
2023-10-13T23:58:59.862Z,18.43
